Time;durP1;ratioP1;P1;durP2;ratioP2;P2;SDS_P1;SDS_P2;PMS_P1;PMS_P2;Temp;Humidity;BMP_temperature;BMP_pressure;BME280_temperature;BME280_humidity;BME280_pressure;Samples;Min_cycle;Max_cycle;Signal;HPM_P1;HPM_P2
2022/09/11 00:01:40;;;;;;;2.53;2.20;;;15.00;99.90;;;;;;5005017;28;20468;-70
2022/09/11 00:04:09;;;;;;;2.00;1.80;;;15.00;99.90;;;;;;5004199;28;20491;-70
2022/09/11 00:06:36;;;;;;;2.20;2.10;;;15.10;99.90;;;;;;5008406;28;20449;-70
2022/09/11 00:09:06;;;;;;;2.40;2.17;;;15.10;99.90;;;;;;5006993;28;20869;-70
2022/09/11 00:11:39;;;;;;;2.30;1.80;;;15.10;99.90;;;;;;5008444;28;20460;-70
2022/09/11 00:14:06;;;;;;;2.37;2.17;;;15.10;99.90;;;;;;5006876;28;20463;-70
2022/09/11 00:16:38;;;;;;;3.50;2.10;;;15.10;99.90;;;;;;5008313;28;21014;-71
2022/09/11 00:19:09;;;;;;;2.20;2.00;;;15.10;99.90;;;;;;5004275;28;20460;-70
2022/09/11 00:21:36;;;;;;;3.87;2.40;;;15.10;99.90;;;;;;5006260;28;20562;-70
2022/09/11 00:24:03;;;;;;;5.67;2.50;;;15.00;99.90;;;;;;5007369;28;20472;-70
2022/09/11 00:26:30;;;;;;;2.80;2.40;;;15.00;99.90;;;;;;5009183;28;20472;-70
2022/09/11 00:29:00;;;;;;;2.97;2.30;;;15.00;99.90;;;;;;5007027;28;20461;-70
2022/09/11 00:31:29;;;;;;;3.90;2.60;;;15.00;99.90;;;;;;5005994;28;20463;-70
2022/09/11 00:33:56;;;;;;;3.17;2.37;;;15.00;99.90;;;;;;5005703;28;20479;-70
2022/09/11 00:36:27;;;;;;;2.63;2.43;;;15.00;99.90;;;;;;5008672;28;20487;-70
2022/09/11 00:38:56;;;;;;;2.80;2.03;;;15.00;99.90;;;;;;5010165;28;20581;-70
2022/09/11 00:41:25;;;;;;;2.80;2.03;;;15.00;99.90;;;;;;5010630;28;20872;-70
2022/09/11 00:43:56;;;;;;;3.50;2.53;;;15.10;99.90;;;;;;5007070;28;20538;-71
2022/09/11 00:46:30;;;;;;;2.60;2.40;;;15.10;99.90;;;;;;5008829;28;20468;-70
2022/09/11 00:48:59;;;;;;;2.50;2.30;;;15.10;99.90;;;;;;5010980;28;20510;-70
2022/09/11 00:51:33;;;;;;;3.40;3.17;;;15.10;99.90;;;;;;5008672;28;20460;-70
2022/09/11 00:54:02;;;;;;;6.97;5.10;;;15.20;99.90;;;;;;5008327;28;20503;-70
2022/09/11 00:56:34;;;;;;;2.60;2.40;;;15.20;99.90;;;;;;5010654;28;20485;-70
2022/09/11 00:59:02;;;;;;;2.47;2.20;;;15.20;99.90;;;;;;5007482;28;20449;-70
2022/09/11 01:01:29;;;;;;;2.50;2.10;;;15.20;99.90;;;;;;5008379;28;20498;-70
2022/09/11 01:03:57;;;;;;;2.50;2.30;;;15.20;99.90;;;;;;5012143;28;20448;-70
2022/09/11 01:06:25;;;;;;;2.47;2.27;;;15.30;99.90;;;;;;5011104;28;20484;-70
2022/09/11 01:08:54;;;;;;;2.33;2.13;;;15.30;99.90;;;;;;5009487;28;20543;-70
2022/09/11 01:11:35;;;;;;;3.80;2.30;;;15.40;99.90;;;;;;5008695;28;20448;-70
2022/09/11 01:14:09;;;;;;;2.97;2.23;;;15.40;99.90;;;;;;5007954;28;20551;-70
2022/09/11 01:16:40;;;;;;;3.20;2.50;;;15.40;99.90;;;;;;5008659;28;20487;-70
2022/09/11 01:19:26;;;;;;;2.33;2.17;;;15.40;99.90;;;;;;5008402;28;20480;-70
2022/09/11 01:22:10;;;;;;;4.80;2.50;;;15.40;99.90;;;;;;5008927;28;20523;-70
2022/09/11 01:24:53;;;;;;;2.40;2.20;;;15.40;99.90;;;;;;5004529;28;20558;-70
2022/09/11 01:27:40;;;;;;;3.30;2.37;;;15.40;99.90;;;;;;5009807;28;20453;-70
2022/09/11 01:30:10;;;;;;;3.47;2.67;;;15.40;99.90;;;;;;5009986;28;20480;-70
2022/09/11 01:32:48;;;;;;;2.47;1.90;;;15.40;99.90;;;;;;5009137;28;20485;-70
2022/09/11 01:35:20;;;;;;;2.47;2.23;;;15.40;99.90;;;;;;5008132;28;20938;-70
2022/09/11 01:37:54;;;;;;;2.43;2.20;;;15.40;99.90;;;;;;5008516;28;20959;-70
2022/09/11 01:40:25;;;;;;;2.90;2.60;;;15.10;99.90;;;;;;5004220;28;20940;-70
2022/09/11 01:43:05;;;;;;;3.30;2.50;;;15.30;99.90;;;;;;5005996;28;20455;-70
2022/09/11 01:45:36;;;;;;;2.90;2.70;;;15.30;99.90;;;;;;5007494;28;20859;-70
2022/09/11 01:48:03;;;;;;;4.67;2.83;;;15.30;99.90;;;;;;5010341;28;20537;-70
2022/09/11 01:50:34;;;;;;;3.10;2.90;;;15.30;99.90;;;;;;5008889;28;20559;-70
2022/09/11 01:53:05;;;;;;;2.87;2.67;;;15.30;99.90;;;;;;5006454;28;20824;-70
2022/09/11 01:55:36;;;;;;;3.57;3.23;;;15.30;99.90;;;;;;5009720;28;20543;-70
2022/09/11 01:58:09;;;;;;;4.67;3.93;;;15.30;99.90;;;;;;5009504;28;20469;-70
2022/09/11 02:00:39;;;;;;;4.07;3.23;;;15.30;99.90;;;;;;5007838;28;20516;-70
2022/09/11 02:03:13;;;;;;;5.70;3.57;;;15.40;99.90;;;;;;5008622;28;20991;-70
2022/09/11 02:05:44;;;;;;;4.40;4.00;;;15.40;99.90;;;;;;5008861;28;20456;-70
2022/09/11 02:08:16;;;;;;;4.33;3.73;;;15.50;99.90;;;;;;5010541;28;20544;-70
2022/09/11 02:10:48;;;;;;;4.30;3.90;;;15.50;99.90;;;;;;5006842;28;20594;-70
2022/09/11 02:13:21;;;;;;;5.30;3.97;;;15.60;99.90;;;;;;5007910;28;20832;-70
2022/09/11 02:15:54;;;;;;;5.47;3.83;;;15.60;99.90;;;;;;5009851;28;20472;-70
2022/09/11 02:18:26;;;;;;;4.83;4.07;;;15.60;99.90;;;;;;5010023;28;21003;-70
2022/09/11 02:20:53;;;;;;;4.77;4.33;;;15.60;99.90;;;;;;5004058;28;20476;-70
2022/09/11 02:23:21;;;;;;;4.87;4.43;;;15.60;99.90;;;;;;5007522;28;20468;-70
2022/09/11 02:25:48;;;;;;;4.03;3.73;;;15.60;99.90;;;;;;5009361;28;20551;-70
2022/09/11 02:28:17;;;;;;;4.53;4.10;;;15.70;99.90;;;;;;5007889;28;20464;-70
2022/09/11 02:30:45;;;;;;;5.60;4.70;;;15.60;99.90;;;;;;5006459;28;20481;-70
2022/09/11 02:33:32;;;;;;;4.80;4.10;;;15.60;99.90;;;;;;5005706;28;20548;-70
2022/09/11 02:36:12;;;;;;;6.47;4.17;;;15.70;99.90;;;;;;5007562;28;20579;-70
2022/09/11 02:38:47;;;;;;;7.80;3.97;;;15.70;99.90;;;;;;5005988;28;20663;-70
2022/09/11 02:41:22;;;;;;;3.90;3.60;;;15.70;99.90;;;;;;5005432;28;20480;-70
2022/09/11 02:44:03;;;;;;;4.87;4.47;;;15.70;99.90;;;;;;5004424;28;20460;-71
2022/09/11 02:46:52;;;;;;;4.27;3.97;;;15.70;99.90;;;;;;5005803;28;20465;-70
2022/09/11 02:49:25;;;;;;;5.10;4.60;;;15.70;99.90;;;;;;5006708;28;20477;-70
2022/09/11 02:52:02;;;;;;;4.40;3.90;;;15.80;99.90;;;;;;5003159;28;20507;-70
2022/09/11 02:54:37;;;;;;;4.27;3.80;;;15.80;99.90;;;;;;5006088;28;20453;-70
2022/09/11 02:57:09;;;;;;;5.20;4.23;;;15.80;99.90;;;;;;5007467;28;20491;-70
2022/09/11 02:59:42;;;;;;;5.27;4.13;;;15.80;99.90;;;;;;5004532;28;20493;-70
2022/09/11 03:02:12;;;;;;;4.07;3.77;;;15.80;99.90;;;;;;5006254;28;20453;-70
2022/09/11 03:04:40;;;;;;;5.30;4.47;;;15.80;99.90;;;;;;5006068;28;20506;-70
2022/09/11 03:07:08;;;;;;;4.43;4.03;;;15.80;99.90;;;;;;5006448;28;20475;-70
2022/09/11 03:09:35;;;;;;;4.47;4.07;;;15.70;99.90;;;;;;5008640;28;20658;-70
2022/09/11 03:12:04;;;;;;;4.87;4.10;;;15.70;99.90;;;;;;5005069;28;20876;-70
2022/09/11 03:14:31;;;;;;;5.03;4.50;;;15.70;99.90;;;;;;5006285;28;20540;-70
2022/09/11 03:17:00;;;;;;;5.90;4.27;;;15.70;99.90;;;;;;5007255;28;20519;-70
2022/09/11 03:19:28;;;;;;;5.67;5.10;;;15.70;99.90;;;;;;5007830;28;20487;-70
2022/09/11 03:21:55;;;;;;;5.40;4.90;;;15.70;99.90;;;;;;5005006;28;20473;-70
2022/09/11 03:24:22;;;;;;;5.40;4.60;;;15.70;99.90;;;;;;4958866;28;1346269;-70
2022/09/11 03:26:49;;;;;;;6.17;5.57;;;15.70;99.90;;;;;;5004195;28;20201;-70
2022/09/11 03:29:16;;;;;;;4.63;4.23;;;15.70;99.90;;;;;;5009073;28;20559;-70
2022/09/11 03:31:43;;;;;;;6.10;5.60;;;15.70;99.90;;;;;;5006452;28;20448;-70
2022/09/11 03:34:11;;;;;;;4.90;4.47;;;15.70;99.90;;;;;;5007213;28;20468;-70
2022/09/11 03:36:38;;;;;;;5.50;4.90;;;15.70;99.90;;;;;;5006658;28;20577;-70
2022/09/11 03:39:05;;;;;;;6.20;4.80;;;15.70;99.90;;;;;;5006642;28;20490;-71
2022/09/11 03:41:33;;;;;;;5.50;4.97;;;15.70;99.90;;;;;;5005011;28;20511;-71
2022/09/11 03:44:00;;;;;;;6.10;5.60;;;15.70;99.90;;;;;;5007611;28;20548;-70
2022/09/11 03:46:27;;;;;;;5.17;4.73;;;15.70;99.90;;;;;;5001813;28;20535;-70
2022/09/11 03:48:54;;;;;;;5.97;5.47;;;15.70;99.90;;;;;;5007648;28;20473;-71
2022/09/11 03:51:25;;;;;;;5.57;5.07;;;15.70;99.90;;;;;;5006398;28;20487;-71
2022/09/11 03:53:52;;;;;;;5.50;5.00;;;15.70;99.90;;;;;;5004694;28;20451;-70
2022/09/11 03:56:20;;;;;;;6.33;5.63;;;15.70;99.90;;;;;;5003302;28;20592;-70
2022/09/11 03:58:47;;;;;;;6.30;5.80;;;15.70;99.90;;;;;;5002858;28;20481;-70
2022/09/11 04:01:18;;;;;;;6.47;5.80;;;15.70;99.90;;;;;;5003187;28;20452;-70
2022/09/11 04:03:45;;;;;;;5.70;5.20;;;15.70;99.90;;;;;;5006933;28;20771;-70
2022/09/11 04:06:12;;;;;;;5.83;5.33;;;15.70;99.90;;;;;;5007136;28;20460;-70
2022/09/11 04:08:41;;;;;;;6.90;6.30;;;15.70;99.90;;;;;;5006055;28;20477;-71
2022/09/11 04:11:10;;;;;;;6.10;5.60;;;15.70;99.90;;;;;;5007024;28;20527;-71
2022/09/11 04:13:39;;;;;;;6.73;6.17;;;15.70;99.90;;;;;;5008669;28;20456;-70
2022/09/11 04:16:08;;;;;;;6.30;5.50;;;15.70;99.90;;;;;;5003703;28;20765;-71
2022/09/11 04:18:38;;;;;;;6.37;5.70;;;15.70;99.90;;;;;;5010610;28;20576;-71
2022/09/11 04:21:06;;;;;;;7.40;6.63;;;15.80;99.90;;;;;;5004599;28;20837;-70
2022/09/11 04:23:33;;;;;;;7.03;5.90;;;15.70;99.90;;;;;;4992916;28;20805;-70
2022/09/11 04:26:02;;;;;;;7.13;6.17;;;15.70;99.90;;;;;;4998028;28;20457;-70
2022/09/11 04:28:31;;;;;;;6.73;6.10;;;15.70;99.90;;;;;;5008115;28;20479;-70
2022/09/11 04:31:04;;;;;;;9.07;6.93;;;15.70;99.90;;;;;;5010466;28;20523;-70
2022/09/11 04:33:31;;;;;;;6.33;5.87;;;15.70;99.90;;;;;;5013799;28;20452;-70
2022/09/11 04:36:04;;;;;;;5.63;5.13;;;15.80;99.90;;;;;;5009756;28;20464;-70
2022/09/11 04:38:32;;;;;;;5.97;5.30;;;15.80;99.90;;;;;;5013605;28;20524;-70
2022/09/11 04:41:02;;;;;;;8.27;6.93;;;15.80;99.90;;;;;;5010945;28;20452;-70
2022/09/11 04:43:30;;;;;;;6.70;6.10;;;15.80;99.90;;;;;;5012552;28;20437;-70
2022/09/11 04:46:01;;;;;;;6.20;5.60;;;15.80;99.90;;;;;;5011106;28;20463;-70
2022/09/11 04:48:28;;;;;;;6.07;5.57;;;15.80;99.90;;;;;;4999257;28;20988;-71
2022/09/11 04:51:00;;;;;;;7.07;6.17;;;15.80;99.90;;;;;;5009356;28;20449;-70
2022/09/11 04:53:27;;;;;;;6.57;5.97;;;15.80;99.90;;;;;;5012127;28;20460;-70
2022/09/11 04:56:03;;;;;;;7.27;6.70;;;15.80;99.90;;;;;;5010777;28;20999;-70
2022/09/11 04:58:30;;;;;;;6.30;5.80;;;15.80;99.90;;;;;;4999923;28;20502;-71
2022/09/11 05:00:58;;;;;;;6.33;5.83;;;15.80;99.90;;;;;;5005883;28;20901;-70
2022/09/11 05:03:24;;;;;;;6.63;6.10;;;15.80;99.90;;;;;;5012248;28;20455;-70
2022/09/11 05:05:52;;;;;;;6.27;5.73;;;15.80;99.90;;;;;;5009899;28;20540;-70
2022/09/11 05:08:19;;;;;;;6.53;6.00;;;15.80;99.90;;;;;;5011293;28;20563;-70
2022/09/11 05:10:47;;;;;;;8.53;6.40;;;15.80;99.90;;;;;;5009521;28;20481;-70
2022/09/11 05:13:15;;;;;;;7.10;6.50;;;15.80;99.90;;;;;;5005645;28;20489;-70
2022/09/11 05:15:43;;;;;;;7.23;6.63;;;15.80;99.90;;;;;;5010074;28;20490;-70
2022/09/11 05:18:10;;;;;;;7.03;6.53;;;15.80;99.90;;;;;;5009885;28;20511;-70
2022/09/11 05:20:38;;;;;;;7.00;6.50;;;15.70;99.90;;;;;;5009279;28;21178;-70
2022/09/11 05:23:06;;;;;;;7.20;6.60;;;15.70;99.90;;;;;;5005250;28;20855;-70
2022/09/11 05:25:35;;;;;;;7.13;6.13;;;15.80;99.90;;;;;;5007992;28;20988;-70
2022/09/11 05:28:04;;;;;;;7.27;6.57;;;15.80;99.90;;;;;;5010169;28;20477;-70
2022/09/11 05:30:32;;;;;;;6.80;6.20;;;15.80;99.90;;;;;;5010913;28;20465;-70
2022/09/11 05:32:59;;;;;;;7.00;6.30;;;15.80;99.90;;;;;;5001565;28;21037;-70
2022/09/11 05:35:26;;;;;;;9.33;7.20;;;15.80;99.90;;;;;;5003548;28;20461;-70
2022/09/11 05:37:53;;;;;;;7.53;6.80;;;15.80;99.90;;;;;;5008999;28;20500;-69
2022/09/11 05:40:20;;;;;;;6.90;6.30;;;15.80;99.90;;;;;;5006960;28;20456;-69
2022/09/11 05:42:47;;;;;;;6.43;5.93;;;15.80;99.90;;;;;;5010240;28;20535;-70
2022/09/11 05:45:14;;;;;;;6.37;5.77;;;15.80;99.90;;;;;;5003071;28;20548;-70
2022/09/11 05:47:43;;;;;;;7.40;6.70;;;15.80;99.90;;;;;;5004390;28;20539;-69
2022/09/11 05:50:10;;;;;;;7.00;6.40;;;15.80;99.90;;;;;;5008897;28;20460;-70
2022/09/11 05:52:37;;;;;;;7.60;6.90;;;16.00;99.90;;;;;;5006225;28;20504;-70
2022/09/11 05:55:05;;;;;;;7.30;6.53;;;15.90;99.90;;;;;;5009114;28;20540;-70
2022/09/11 05:57:32;;;;;;;6.80;6.40;;;15.90;99.90;;;;;;5009198;28;20480;-70
2022/09/11 05:59:59;;;;;;;8.23;7.43;;;15.90;99.90;;;;;;5010888;28;20469;-70
2022/09/11 06:02:26;;;;;;;7.67;7.07;;;15.90;99.90;;;;;;5007597;28;20472;-70
2022/09/11 06:04:55;;;;;;;8.30;6.47;;;15.90;99.90;;;;;;5003861;28;20515;-70
2022/09/11 06:07:22;;;;;;;8.00;7.30;;;15.90;99.90;;;;;;5008660;28;21073;-70
2022/09/11 06:09:49;;;;;;;7.23;6.63;;;15.90;99.90;;;;;;5006139;28;20511;-70
2022/09/11 06:12:17;;;;;;;7.13;6.47;;;15.90;99.90;;;;;;5008637;28;20531;-70
2022/09/11 06:14:44;;;;;;;6.90;6.27;;;16.00;99.90;;;;;;5008264;28;20522;-70
2022/09/11 06:17:11;;;;;;;7.97;7.27;;;16.00;99.90;;;;;;5009793;28;20465;-70
2022/09/11 06:19:39;;;;;;;8.17;7.50;;;16.00;99.90;;;;;;5007402;28;20484;-70
2022/09/11 06:22:07;;;;;;;7.20;6.60;;;16.10;99.90;;;;;;5010406;28;20449;-70
2022/09/11 06:24:34;;;;;;;7.33;6.83;;;16.20;99.90;;;;;;5011561;28;20987;-70
2022/09/11 06:27:01;;;;;;;7.90;7.30;;;16.10;99.90;;;;;;5005844;28;20453;-70
2022/09/11 06:29:30;;;;;;;7.03;6.43;;;16.10;99.90;;;;;;5009880;28;20559;-70
2022/09/11 06:31:56;;;;;;;6.77;6.20;;;16.20;99.90;;;;;;5007476;28;21035;-71
2022/09/11 06:34:24;;;;;;;7.87;7.10;;;16.20;99.90;;;;;;5006941;28;20463;-71
2022/09/11 06:36:51;;;;;;;6.50;5.97;;;16.30;99.90;;;;;;5002737;28;20453;-70
2022/09/11 06:39:21;;;;;;;6.30;5.80;;;16.30;99.90;;;;;;5002523;28;20860;-70
2022/09/11 06:41:49;;;;;;;7.03;6.53;;;16.30;99.90;;;;;;5001509;28;20484;-70
2022/09/11 06:44:16;;;;;;;6.83;6.33;;;16.40;99.90;;;;;;5002009;28;20457;-69
2022/09/11 06:46:43;;;;;;;6.83;6.23;;;16.40;99.90;;;;;;5010301;28;20524;-69
2022/09/11 06:49:10;;;;;;;7.50;6.90;;;16.40;99.90;;;;;;5010353;28;20484;-69
2022/09/11 06:51:38;;;;;;;7.40;6.80;;;16.40;99.90;;;;;;5007635;28;20453;-69
2022/09/11 06:54:06;;;;;;;8.30;6.73;;;16.40;99.90;;;;;;5005309;28;20540;-69
2022/09/11 06:56:34;;;;;;;7.00;6.43;;;16.40;99.90;;;;;;5001749;28;20884;-69
2022/09/11 06:59:01;;;;;;;8.67;7.60;;;16.40;99.90;;;;;;5006198;28;20535;-69
2022/09/11 07:01:28;;;;;;;7.10;6.60;;;16.50;99.90;;;;;;5004382;28;20453;-69
2022/09/11 07:03:56;;;;;;;7.30;6.60;;;16.50;99.90;;;;;;5010050;28;20539;-69
2022/09/11 07:06:24;;;;;;;7.03;6.50;;;16.50;99.90;;;;;;5008787;28;21048;-70
2022/09/11 07:08:53;;;;;;;7.30;6.70;;;16.60;99.90;;;;;;5006923;28;20531;-69
2022/09/11 07:11:20;;;;;;;7.13;6.53;;;16.70;99.90;;;;;;5009738;28;20461;-69
2022/09/11 07:13:49;;;;;;;7.37;6.70;;;16.40;99.90;;;;;;5003340;28;20460;-70
2022/09/11 07:16:16;;;;;;;6.90;6.30;;;16.70;99.90;;;;;;5007130;28;20511;-70
2022/09/11 07:18:44;;;;;;;6.60;6.10;;;16.70;99.90;;;;;;5001042;28;20595;-70
2022/09/11 07:21:13;;;;;;;6.80;6.30;;;16.80;99.90;;;;;;5008948;28;20461;-69
2022/09/11 07:23:42;;;;;;;7.30;6.70;;;16.80;99.90;;;;;;5007009;28;20456;-71
2022/09/11 07:26:11;;;;;;;6.80;6.10;;;16.80;99.90;;;;;;5008151;28;20449;-70
2022/09/11 07:28:39;;;;;;;7.17;6.60;;;16.90;99.90;;;;;;5007152;28;20540;-80
2022/09/11 07:31:10;;;;;;;7.60;6.87;;;16.90;99.90;;;;;;5008530;28;20465;-68
2022/09/11 07:33:38;;;;;;;6.47;5.87;;;17.00;99.90;;;;;;5007373;28;20453;-69
2022/09/11 07:36:10;;;;;;;7.17;6.53;;;17.00;99.90;;;;;;5003536;28;20494;-67
2022/09/11 07:38:39;;;;;;;7.30;6.80;;;17.10;99.90;;;;;;5008761;28;20507;-66
2022/09/11 07:41:07;;;;;;;6.40;5.80;;;17.20;99.90;;;;;;5000029;28;20457;-66
2022/09/11 07:43:34;;;;;;;6.87;6.27;;;17.20;99.90;;;;;;4991009;28;20542;-66
2022/09/11 07:46:02;;;;;;;5.70;5.10;;;17.30;99.90;;;;;;5003758;28;20457;-66
2022/09/11 07:48:31;;;;;;;7.50;6.80;;;17.40;99.90;;;;;;5007856;28;20577;-66
2022/09/11 07:51:01;;;;;;;7.17;6.20;;;17.50;99.90;;;;;;5008462;28;20445;-75
2022/09/11 07:53:28;;;;;;;6.57;6.07;;;17.60;99.90;;;;;;5006010;28;20448;-66
2022/09/11 07:55:55;;;;;;;7.33;6.70;;;17.60;99.90;;;;;;5009128;28;20527;-66
2022/09/11 07:58:23;;;;;;;5.90;5.30;;;17.70;99.90;;;;;;5000667;28;20579;-66
2022/09/11 08:00:57;;;;;;;6.20;5.70;;;17.80;99.90;;;;;;5009873;28;20507;-66
2022/09/11 08:03:24;;;;;;;6.90;6.30;;;17.90;99.90;;;;;;5005135;28;20453;-66
2022/09/11 08:05:57;;;;;;;7.10;6.50;;;18.10;99.90;;;;;;4997149;28;20459;-68
2022/09/11 08:08:24;;;;;;;7.90;7.30;;;18.10;99.90;;;;;;4997799;28;20485;-66
2022/09/11 08:10:52;;;;;;;7.30;6.60;;;18.20;99.90;;;;;;5007532;28;20910;-66
2022/09/11 08:13:19;;;;;;;7.27;6.57;;;18.30;99.90;;;;;;5004601;28;20559;-66
2022/09/11 08:15:47;;;;;;;6.90;6.30;;;18.40;99.90;;;;;;5008900;28;20549;-67
2022/09/11 08:18:14;;;;;;;6.63;6.03;;;18.50;99.90;;;;;;5006052;28;20489;-67
2022/09/11 08:20:41;;;;;;;6.70;6.10;;;18.60;99.90;;;;;;5006667;28;20969;-66
2022/09/11 08:23:10;;;;;;;6.40;5.60;;;18.80;99.90;;;;;;4997871;28;20548;-67
2022/09/11 08:25:38;;;;;;;5.40;4.90;;;19.10;99.90;;;;;;5003268;28;20462;-67
2022/09/11 08:28:05;;;;;;;5.83;5.43;;;19.70;99.90;;;;;;5004967;28;21011;-71
2022/09/11 08:30:33;;;;;;;5.40;5.00;;;20.40;99.90;;;;;;5001756;28;20544;-70
2022/09/11 08:33:01;;;;;;;5.10;4.80;;;21.00;99.90;;;;;;5001844;28;20507;-70
2022/09/11 08:35:28;;;;;;;5.63;5.20;;;21.60;99.90;;;;;;5002676;28;20449;-69
2022/09/11 08:37:55;;;;;;;4.73;4.43;;;21.80;99.90;;;;;;4998657;28;20477;-69
2022/09/11 08:40:23;;;;;;;6.17;5.60;;;21.80;99.90;;;;;;4997675;28;20461;-70
2022/09/11 08:42:51;;;;;;;5.63;5.20;;;21.90;99.90;;;;;;5007694;28;20453;-70
2022/09/11 08:45:22;;;;;;;5.03;4.67;;;21.90;99.90;;;;;;5004406;28;20591;-70
2022/09/11 08:47:53;;;;;;;5.77;5.03;;;21.80;99.90;;;;;;5005228;28;20481;-70
2022/09/11 08:50:24;;;;;;;5.50;5.07;;;21.80;99.90;;;;;;5007489;28;20531;-70
2022/09/11 08:52:53;;;;;;;5.40;5.00;;;21.80;99.90;;;;;;5008416;28;20449;-69
2022/09/11 08:55:30;;;;;;;5.87;5.43;;;21.50;99.90;;;;;;4997962;28;20496;-70
2022/09/11 08:58:05;;;;;;;6.00;5.60;;;21.00;99.90;;;;;;5002845;28;20529;-70
2022/09/11 09:00:37;;;;;;;5.97;5.20;;;20.50;99.90;;;;;;5009033;28;20460;-72
2022/09/11 09:03:37;;;;;;;5.30;4.80;;;20.40;99.90;;;;;;5005434;28;20451;-70
2022/09/11 09:06:23;;;;;;;5.03;4.53;;;20.90;99.90;;;;;;5007705;28;20464;-69
2022/09/11 09:08:59;;;;;;;3.70;3.40;;;21.60;99.90;;;;;;5006735;28;20491;-72
2022/09/11 09:11:37;;;;;;;5.13;4.70;;;22.40;99.90;;;;;;5007245;28;20467;-71
2022/09/11 09:14:29;;;;;;;5.40;4.97;;;23.00;99.90;;;;;;5007733;28;20468;-71
2022/09/11 09:17:01;;;;;;;4.80;4.50;;;23.10;99.90;;;;;;5007670;28;20543;-71
2022/09/11 09:19:33;;;;;;;5.00;4.70;;;22.80;99.90;;;;;;5006405;28;22592;-70
2022/09/11 09:22:07;;;;;;;4.03;3.73;;;22.50;99.90;;;;;;5006298;28;20489;-70
2022/09/11 09:24:40;;;;;;;4.80;4.50;;;22.80;99.90;;;;;;5009071;28;20467;-70
2022/09/11 09:27:17;;;;;;;4.60;3.90;;;23.40;99.90;;;;;;5004255;28;20505;-70
2022/09/11 09:29:46;;;;;;;5.17;4.77;;;23.60;99.90;;;;;;5009644;28;21001;-70
2022/09/11 09:32:19;;;;;;;4.70;4.30;;;23.80;99.90;;;;;;5006761;28;20465;-70
2022/09/11 09:34:51;;;;;;;5.13;4.83;;;23.60;99.90;;;;;;5007302;28;20457;-70
2022/09/11 09:37:21;;;;;;;5.50;4.87;;;23.20;99.90;;;;;;5011789;28;20468;-70
2022/09/11 09:39:50;;;;;;;4.40;4.10;;;22.90;99.90;;;;;;5008829;28;20485;-70
2022/09/11 09:42:41;;;;;;;4.40;4.10;;;22.80;99.90;;;;;;5007248;28;20465;-71
2022/09/11 09:45:33;;;;;;;3.97;3.67;;;22.80;99.90;;;;;;5008126;28;20489;-71
2022/09/11 09:48:00;;;;;;;4.20;3.90;;;23.30;99.90;;;;;;4993025;28;20484;-71
2022/09/11 09:50:31;;;;;;;3.20;3.00;;;24.10;99.90;;;;;;4997035;28;21002;-71
2022/09/11 09:53:03;;;;;;;3.60;3.30;;;24.90;99.90;;;;;;4995202;28;20837;-71
2022/09/11 09:55:32;;;;;;;4.90;4.50;;;25.50;99.90;;;;;;5002233;28;20453;-70
2022/09/11 09:58:01;;;;;;;5.03;4.73;;;25.70;99.90;;;;;;5005513;28;20996;-70
2022/09/11 10:00:31;;;;;;;3.93;3.70;;;25.20;99.90;;;;;;4999286;28;20983;-70
2022/09/11 10:02:58;;;;;;;4.93;4.60;;;25.00;99.90;;;;;;5001118;28;20468;-71
2022/09/11 10:05:28;;;;;;;4.63;4.23;;;24.90;99.90;;;;;;5007087;28;20461;-70
2022/09/11 10:07:57;;;;;;;4.30;4.00;;;24.80;99.90;;;;;;5008528;28;21026;-71
2022/09/11 10:10:28;;;;;;;6.17;5.77;;;24.50;99.90;;;;;;5010931;28;20524;-70
2022/09/11 10:12:58;;;;;;;5.17;4.80;;;24.20;99.90;;;;;;5011358;28;20617;-71
2022/09/11 10:15:28;;;;;;;5.10;4.70;;;23.80;99.90;;;;;;5005637;28;20527;-71
2022/09/11 10:18:32;;;;;;;5.70;5.30;;;23.40;99.90;;;;;;5009152;28;20993;-70
2022/09/11 10:21:21;;;;;;;5.83;5.43;;;22.80;99.90;;;;;;5009363;28;20483;-70
2022/09/11 10:23:50;;;;;;;5.27;4.87;;;22.30;99.90;;;;;;5007944;28;20488;-78
2022/09/11 10:26:23;;;;;;;6.10;5.60;;;22.00;99.90;;;;;;5008245;28;20475;-76
2022/09/11 10:28:51;;;;;;;6.50;6.00;;;21.90;99.90;;;;;;5008014;28;21049;-71
2022/09/11 10:31:21;;;;;;;5.73;5.33;;;21.70;99.90;;;;;;5007382;28;20960;-71
2022/09/11 10:33:52;;;;;;;5.70;5.20;;;21.70;99.90;;;;;;5006087;28;20489;-71
2022/09/11 10:36:23;;;;;;;5.50;5.00;;;21.90;99.90;;;;;;5008730;28;20499;-71
2022/09/11 10:38:51;;;;;;;4.87;4.37;;;22.30;99.90;;;;;;5008285;28;20484;-71
2022/09/11 10:41:21;;;;;;;4.57;4.27;;;22.60;99.90;;;;;;4997174;28;20461;-71
2022/09/11 10:43:54;;;;;;;5.57;5.17;;;23.00;99.90;;;;;;5003426;28;20511;-71
2022/09/11 10:46:31;;;;;;;5.00;4.60;;;23.20;99.90;;;;;;5002501;28;20453;-71
2022/09/11 10:49:08;;;;;;;5.10;4.70;;;23.40;99.90;;;;;;5003285;28;20504;-72
2022/09/11 10:51:37;;;;;;;5.83;5.43;;;23.70;99.90;;;;;;5006365;28;20455;-71
2022/09/11 10:54:22;;;;;;;5.13;4.73;;;23.90;99.90;;;;;;5002902;28;20532;-71
2022/09/11 10:57:06;;;;;;;4.33;4.07;;;24.00;99.90;;;;;;4999951;28;20585;-72
2022/09/11 10:59:41;;;;;;;4.40;4.10;;;24.10;99.90;;;;;;5005296;28;20568;-71
2022/09/11 11:02:20;;;;;;;4.63;4.33;;;24.10;99.90;;;;;;5002770;28;21077;-72
2022/09/11 11:04:49;;;;;;;5.40;5.00;;;24.10;99.90;;;;;;5001944;28;20595;-71
2022/09/11 11:07:28;;;;;;;5.40;5.00;;;24.20;99.90;;;;;;5007683;28;20512;-71
2022/09/11 11:10:08;;;;;;;5.40;5.00;;;24.40;99.90;;;;;;5006647;28;20455;-70
2022/09/11 11:12:50;;;;;;;5.73;5.33;;;24.30;99.90;;;;;;5004159;28;20459;-70
2022/09/11 11:15:37;;;;;;;4.80;4.40;;;24.10;99.90;;;;;;5007900;28;20465;-71
2022/09/11 11:18:30;;;;;;;5.90;4.97;;;24.00;99.90;;;;;;5007643;28;20558;-70
2022/09/11 11:21:11;;;;;;;5.40;5.00;;;24.00;99.90;;;;;;5002542;28;20694;-70
2022/09/11 11:23:50;;;;;;;6.07;5.67;;;24.00;99.90;;;;;;4992555;28;20493;-70
2022/09/11 11:26:31;;;;;;;5.50;5.10;;;23.90;99.90;;;;;;4998301;28;20504;-72
2022/09/11 11:29:21;;;;;;;4.80;4.50;;;24.00;99.90;;;;;;5008211;28;20452;-71
2022/09/11 11:32:03;;;;;;;5.33;4.90;;;24.60;99.90;;;;;;5007523;28;20492;-72
2022/09/11 11:34:47;;;;;;;4.60;4.30;;;25.40;99.90;;;;;;5005659;28;20515;-72
2022/09/11 11:37:19;;;;;;;4.17;3.77;;;26.10;99.90;;;;;;5004187;28;20568;-71
2022/09/11 11:39:57;;;;;;;4.60;4.30;;;26.80;99.90;;;;;;5008413;28;20563;-71
2022/09/11 11:42:27;;;;;;;4.33;3.97;;;27.30;99.50;;;;;;5004985;28;20547;-71
2022/09/11 11:45:00;;;;;;;4.00;3.70;;;27.60;99.20;;;;;;4998249;28;20461;-71
2022/09/11 11:47:32;;;;;;;4.13;3.83;;;27.90;97.90;;;;;;5000812;28;20476;-70
2022/09/11 11:50:06;;;;;;;4.80;4.40;;;28.10;97.40;;;;;;5005102;28;20535;-70
2022/09/11 11:52:45;;;;;;;4.60;4.20;;;28.20;96.50;;;;;;4996305;28;20856;-70
2022/09/11 11:55:17;;;;;;;4.20;3.90;;;28.30;97.00;;;;;;5000835;28;20491;-69
2022/09/11 11:57:53;;;;;;;4.70;4.40;;;28.20;96.30;;;;;;5006128;28;20488;-70
2022/09/11 12:00:21;;;;;;;4.80;4.50;;;28.00;95.90;;;;;;5005959;28;20480;-67
2022/09/11 12:02:53;;;;;;;4.60;4.30;;;27.70;96.10;;;;;;4996337;28;20937;-70
2022/09/11 12:05:24;;;;;;;5.23;4.93;;;27.40;96.40;;;;;;5002984;28;20471;-70
2022/09/11 12:07:53;;;;;;;3.80;3.50;;;27.30;96.30;;;;;;5000021;28;20473;-70
2022/09/11 12:10:25;;;;;;;4.03;3.83;;;27.00;96.90;;;;;;5003754;28;20549;-69
2022/09/11 12:12:56;;;;;;;4.50;4.20;;;26.70;96.60;;;;;;5002857;28;20465;-72
2022/09/11 12:15:24;;;;;;;4.37;4.07;;;26.70;96.70;;;;;;5000118;28;20462;-70
2022/09/11 12:18:00;;;;;;;5.00;4.63;;;26.80;96.90;;;;;;4999522;28;20516;-71
2022/09/11 12:20:33;;;;;;;4.23;3.93;;;27.00;97.00;;;;;;5002665;28;20527;-71
2022/09/11 12:23:04;;;;;;;4.60;4.30;;;27.30;97.30;;;;;;5000663;28;20456;-70
2022/09/11 12:26:21;;;;;;;4.10;3.87;;;27.80;95.70;;;;;;5007199;28;20469;-70
2022/09/11 12:28:48;;;;;;;4.90;4.60;;;27.90;94.80;;;;;;4942412;28;20530;-71
2022/09/11 12:31:16;;;;;;;5.00;4.63;;;27.40;94.80;;;;;;4993688;28;20461;-70
2022/09/11 12:33:56;;;;;;;4.40;4.10;;;26.90;95.10;;;;;;5003353;28;20453;-70
2022/09/11 12:36:49;;;;;;;5.37;4.87;;;26.40;95.70;;;;;;5005880;28;20513;-70
2022/09/11 12:39:26;;;;;;;4.60;4.30;;;25.50;96.20;;;;;;5011897;28;20451;-70
2022/09/11 12:41:53;;;;;;;4.63;4.33;;;25.00;97.80;;;;;;5007310;28;20553;-70
2022/09/11 12:44:32;;;;;;;4.73;4.43;;;24.70;98.80;;;;;;5009356;28;20662;-70
2022/09/11 12:47:12;;;;;;;4.73;4.30;;;24.50;99.70;;;;;;5010217;28;20989;-71
2022/09/11 12:49:41;;;;;;;4.83;4.53;;;24.30;99.90;;;;;;5001870;28;20461;-70
2022/09/11 12:52:24;;;;;;;4.87;4.57;;;24.00;99.90;;;;;;4995143;28;20496;-71
2022/09/11 12:54:54;;;;;;;5.40;5.10;;;23.70;99.90;;;;;;5002242;28;20523;-70
2022/09/11 12:57:27;;;;;;;4.97;4.63;;;23.30;99.90;;;;;;5002503;28;20485;-70
2022/09/11 12:59:58;;;;;;;5.70;5.30;;;23.00;99.90;;;;;;5009998;28;20487;-71
2022/09/11 13:02:34;;;;;;;5.37;5.07;;;22.80;99.90;;;;;;4999797;28;20535;-71
2022/09/11 13:05:02;;;;;;;6.00;5.60;;;22.50;99.90;;;;;;5011072;28;20463;-70
2022/09/11 13:07:34;;;;;;;4.77;4.43;;;22.30;99.90;;;;;;5009670;28;20482;-70
2022/09/11 13:10:07;;;;;;;6.10;5.70;;;22.20;99.90;;;;;;5009088;28;20464;-70